Time;durP1;ratioP1;P1;durP2;ratioP2;P2;SDS_P1;SDS_P2;PMS_P1;PMS_P2;Temp;Humidity;BMP_temperature;BMP_pressure;BME280_temperature;BME280_humidity;BME280_pressure;Samples;Min_cycle;Max_cycle;Signal;HPM_P1;HPM_P2
2024/01/27 00:00:26;;;;;;;18.40;7.23;;;;;;;;;;5114202;27;20222;-76
2024/01/27 00:02:53;;;;;;;16.70;7.43;;;;;;;;;;5114683;28;20281;-78
2024/01/27 00:05:20;;;;;;;13.33;7.13;;;;;;;;;;5113794;28;20194;-77
2024/01/27 00:07:48;;;;;;;9.90;6.47;;;;;;;;;;5114158;28;20292;-76
2024/01/27 00:10:15;;;;;;;12.70;6.37;;;;;;;;;;5114102;28;20916;-77
2024/01/27 00:12:43;;;;;;;14.70;7.20;;;;;;;;;;5113198;28;20285;-77
2024/01/27 00:15:11;;;;;;;15.40;7.27;;;;;;;;;;5113440;28;20222;-76
2024/01/27 00:17:39;;;;;;;13.47;6.63;;;;;;;;;;5113408;28;20650;-77
2024/01/27 00:20:07;;;;;;;14.17;6.13;;;;;;;;;;5113947;28;20200;-76
2024/01/27 00:22:34;;;;;;;16.53;6.97;;;;;;;;;;5113888;28;20203;-76
2024/01/27 00:25:01;;;;;;;11.20;6.43;;;;;;;;;;5113455;27;20190;-77
2024/01/27 00:27:29;;;;;;;15.63;6.20;;;;;;;;;;5113346;28;20265;-76
2024/01/27 00:29:57;;;;;;;12.40;6.70;;;;;;;;;;5113259;28;20730;-76
2024/01/27 00:32:24;;;;;;;13.90;6.20;;;;;;;;;;5113715;28;20224;-77
2024/01/27 00:34:51;;;;;;;10.80;5.90;;;;;;;;;;5113441;28;20288;-76
2024/01/27 00:37:19;;;;;;;13.10;6.13;;;;;;;;;;5113374;28;20232;-77
2024/01/27 00:39:46;;;;;;;11.53;5.50;;;;;;;;;;5113696;28;20202;-76
2024/01/27 00:42:14;;;;;;;12.10;5.43;;;;;;;;;;5112938;28;20201;-77
2024/01/27 00:44:41;;;;;;;10.60;5.93;;;;;;;;;;5113289;28;20244;-76
2024/01/27 00:47:09;;;;;;;11.03;5.73;;;;;;;;;;5113324;28;20301;-76
2024/01/27 00:49:36;;;;;;;13.40;6.30;;;;;;;;;;5113104;28;20236;-76
2024/01/27 00:52:04;;;;;;;13.43;6.53;;;;;;;;;;5113102;28;20881;-77
2024/01/27 00:54:31;;;;;;;13.67;6.33;;;;;;;;;;5112983;28;20236;-77
2024/01/27 00:56:58;;;;;;;11.97;6.33;;;;;;;;;;5112665;28;20320;-77
2024/01/27 00:59:25;;;;;;;13.17;5.83;;;;;;;;;;5112939;28;20281;-76
2024/01/27 01:01:52;;;;;;;11.80;6.10;;;;;;;;;;5113133;28;20228;-77
2024/01/27 01:04:21;;;;;;;14.23;6.07;;;;;;;;;;5113019;28;20282;-77
2024/01/27 01:06:48;;;;;;;10.50;5.57;;;;;;;;;;5112816;28;20280;-77
2024/01/27 01:09:15;;;;;;;10.47;5.03;;;;;;;;;;5112744;28;20207;-77
2024/01/27 01:11:42;;;;;;;17.30;7.20;;;;;;;;;;5112546;28;20317;-77
2024/01/27 01:14:10;;;;;;;12.10;7.33;;;;;;;;;;5112343;28;20251;-77
2024/01/27 01:16:37;;;;;;;14.90;7.20;;;;;;;;;;5112617;28;20268;-78
2024/01/27 01:19:04;;;;;;;15.10;7.33;;;;;;;;;;5112865;28;20550;-77
2024/01/27 01:21:32;;;;;;;16.03;8.47;;;;;;;;;;5112354;28;20236;-76
2024/01/27 01:24:00;;;;;;;12.23;7.33;;;;;;;;;;5113032;28;20221;-77
2024/01/27 01:26:27;;;;;;;12.87;7.80;;;;;;;;;;5111636;28;20281;-76
2024/01/27 01:28:54;;;;;;;18.33;11.20;;;;;;;;;;5112121;28;20288;-77
2024/01/27 01:31:21;;;;;;;17.20;12.30;;;;;;;;;;5112054;28;20287;-76
2024/01/27 01:33:48;;;;;;;18.33;13.30;;;;;;;;;;5112465;28;20784;-77
2024/01/27 01:36:18;;;;;;;18.47;12.47;;;;;;;;;;5112353;28;20213;-77
2024/01/27 01:38:47;;;;;;;18.53;11.63;;;;;;;;;;5112162;28;20284;-77
2024/01/27 01:41:14;;;;;;;19.30;11.23;;;;;;;;;;5111756;28;20251;-78
2024/01/27 01:43:42;;;;;;;15.07;9.87;;;;;;;;;;5112053;28;20209;-77
2024/01/27 01:46:09;;;;;;;19.33;11.30;;;;;;;;;;5112672;28;20280;-77
2024/01/27 01:48:36;;;;;;;17.67;13.77;;;;;;;;;;5112176;28;20212;-76
2024/01/27 01:51:04;;;;;;;17.30;10.73;;;;;;;;;;5112291;28;20636;-77
2024/01/27 01:53:31;;;;;;;18.80;9.33;;;;;;;;;;5111836;28;20196;-77
2024/01/27 01:56:00;;;;;;;21.07;8.20;;;;;;;;;;5111408;28;20294;-76
2024/01/27 01:58:33;;;;;;;12.77;7.80;;;;;;;;;;5111704;28;20292;-77
2024/01/27 02:01:01;;;;;;;12.13;7.37;;;;;;;;;;5112047;28;20326;-77
2024/01/27 02:03:28;;;;;;;17.20;9.20;;;;;;;;;;5111546;28;20575;-76
2024/01/27 02:05:55;;;;;;;15.83;7.80;;;;;;;;;;5111893;28;20628;-77
2024/01/27 02:08:22;;;;;;;15.80;7.53;;;;;;;;;;5111991;28;20672;-76
2024/01/27 02:10:50;;;;;;;14.37;7.17;;;;;;;;;;5111685;28;20280;-76
2024/01/27 02:13:19;;;;;;;15.87;7.07;;;;;;;;;;5111457;28;20236;-77
2024/01/27 02:15:46;;;;;;;13.23;6.97;;;;;;;;;;5111740;28;20229;-76
2024/01/27 02:18:14;;;;;;;13.07;6.70;;;;;;;;;;5111349;28;20228;-76
2024/01/27 02:20:41;;;;;;;10.57;6.20;;;;;;;;;;5111944;28;20281;-77
2024/01/27 02:23:08;;;;;;;16.63;6.33;;;;;;;;;;5111336;28;20722;-77
2024/01/27 02:25:37;;;;;;;12.63;6.20;;;;;;;;;;5111560;28;20204;-77
2024/01/27 02:28:04;;;;;;;16.17;8.23;;;;;;;;;;5111527;28;20291;-77
2024/01/27 02:30:32;;;;;;;12.60;7.30;;;;;;;;;;5111682;28;20197;-77
2024/01/27 02:32:59;;;;;;;13.23;6.77;;;;;;;;;;5114675;28;20251;-76
2024/01/27 02:35:26;;;;;;;14.70;7.40;;;;;;;;;;5115778;28;20321;-76
2024/01/27 02:37:53;;;;;;;13.03;6.70;;;;;;;;;;5115007;28;20293;-77
2024/01/27 02:40:20;;;;;;;15.13;6.23;;;;;;;;;;5115863;28;20239;-77
2024/01/27 02:42:49;;;;;;;15.47;7.47;;;;;;;;;;5115468;28;20292;-77
2024/01/27 02:45:16;;;;;;;13.97;6.57;;;;;;;;;;5115637;28;20312;-76
2024/01/27 02:47:43;;;;;;;12.83;6.10;;;;;;;;;;5115799;28;20201;-77
2024/01/27 02:50:11;;;;;;;10.70;5.10;;;;;;;;;;5115726;28;20224;-77
2024/01/27 02:52:38;;;;;;;14.87;6.57;;;;;;;;;;5115274;28;20221;-77
2024/01/27 02:55:05;;;;;;;14.87;7.10;;;;;;;;;;5115491;28;20192;-77
2024/01/27 02:57:32;;;;;;;13.50;6.80;;;;;;;;;;5115204;28;20311;-76
2024/01/27 03:00:01;;;;;;;11.90;6.70;;;;;;;;;;5115193;28;20288;-76
2024/01/27 03:02:28;;;;;;;15.80;7.10;;;;;;;;;;5114990;28;20239;-77
2024/01/27 03:04:55;;;;;;;16.23;8.40;;;;;;;;;;5115472;28;20201;-76
2024/01/27 03:07:22;;;;;;;12.57;7.30;;;;;;;;;;5114490;28;20236;-77
2024/01/27 03:09:50;;;;;;;16.00;7.10;;;;;;;;;;5114938;27;20301;-77
2024/01/27 03:12:17;;;;;;;14.60;7.23;;;;;;;;;;5114860;28;20227;-78
2024/01/27 03:14:46;;;;;;;13.03;5.90;;;;;;;;;;5115538;27;20201;-76
2024/01/27 03:17:14;;;;;;;11.93;6.10;;;;;;;;;;5114926;28;20227;-76
2024/01/27 03:19:41;;;;;;;11.73;5.40;;;;;;;;;;5114879;28;20217;-76
2024/01/27 03:22:09;;;;;;;9.33;4.97;;;;;;;;;;5114748;27;20301;-76
2024/01/27 03:24:36;;;;;;;17.30;4.17;;;;;;;;;;5114932;28;20628;-77
2024/01/27 03:27:03;;;;;;;9.57;4.30;;;;;;;;;;5115069;28;20220;-77
2024/01/27 03:29:30;;;;;;;12.77;4.47;;;;;;;;;;5114370;28;20248;-76
2024/01/27 03:31:57;;;;;;;13.63;5.67;;;;;;;;;;5114623;27;20266;-77
2024/01/27 03:34:27;;;;;;;10.43;5.97;;;;;;;;;;5114679;28;20280;-77
2024/01/27 03:36:54;;;;;;;15.03;5.10;;;;;;;;;;5114155;28;20220;-77
2024/01/27 03:39:21;;;;;;;13.80;5.43;;;;;;;;;;5114645;28;20282;-76
2024/01/27 03:41:48;;;;;;;13.43;5.50;;;;;;;;;;5114399;28;20197;-76
2024/01/27 03:44:15;;;;;;;16.40;5.90;;;;;;;;;;5114285;28;20281;-77
2024/01/27 03:46:43;;;;;;;13.53;6.77;;;;;;;;;;5114607;28;20695;-77
2024/01/27 03:49:10;;;;;;;22.60;10.27;;;;;;;;;;5113862;28;20750;-76
2024/01/27 03:51:38;;;;;;;17.27;9.03;;;;;;;;;;5113429;28;20243;-77
2024/01/27 03:54:06;;;;;;;14.50;7.57;;;;;;;;;;5114005;28;20761;-77
2024/01/27 03:56:33;;;;;;;17.83;8.97;;;;;;;;;;5114430;28;20221;-77
2024/01/27 03:59:00;;;;;;;18.30;8.93;;;;;;;;;;5106324;28;20645;-76
2024/01/27 04:01:27;;;;;;;19.07;10.03;;;;;;;;;;5102514;28;20694;-77
2024/01/27 04:03:54;;;;;;;20.97;11.47;;;;;;;;;;5093617;28;20273;-77
2024/01/27 04:06:22;;;;;;;27.47;17.13;;;;;;;;;;5093530;28;20708;-76
2024/01/27 04:08:50;;;;;;;20.03;11.37;;;;;;;;;;5093817;28;20204;-76
2024/01/27 04:11:21;;;;;;;21.20;9.60;;;;;;;;;;5093845;28;20633;-75
2024/01/27 04:13:50;;;;;;;13.93;6.43;;;;;;;;;;5093481;28;20735;-76
2024/01/27 04:16:17;;;;;;;10.57;4.50;;;;;;;;;;5093883;28;20202;-77
2024/01/27 04:18:44;;;;;;;15.90;6.10;;;;;;;;;;5093123;28;20281;-77
2024/01/27 04:21:11;;;;;;;17.77;7.00;;;;;;;;;;5092900;28;20201;-77
2024/01/27 04:23:38;;;;;;;16.40;6.87;;;;;;;;;;5092912;28;20240;-76
2024/01/27 04:26:09;;;;;;;17.40;8.53;;;;;;;;;;5093431;28;20753;-77
2024/01/27 04:28:36;;;;;;;19.97;12.00;;;;;;;;;;5093326;28;20198;-76
2024/01/27 04:31:03;;;;;;;14.57;11.43;;;;;;;;;;5093316;28;20214;-77
2024/01/27 04:33:30;;;;;;;15.90;7.13;;;;;;;;;;5093123;28;20260;-77
2024/01/27 04:35:57;;;;;;;10.90;4.67;;;;;;;;;;5093578;28;20201;-77
2024/01/27 04:38:25;;;;;;;9.60;4.03;;;;;;;;;;5112967;28;20225;-77
2024/01/27 04:40:53;;;;;;;13.60;4.47;;;;;;;;;;5113232;28;20228;-76
2024/01/27 04:43:21;;;;;;;16.73;4.57;;;;;;;;;;5113123;28;20292;-76
2024/01/27 04:45:49;;;;;;;13.57;4.03;;;;;;;;;;5113108;28;20692;-77
2024/01/27 04:48:16;;;;;;;11.77;4.20;;;;;;;;;;5112667;28;20196;-76
2024/01/27 04:50:43;;;;;;;11.23;4.40;;;;;;;;;;5113420;28;20278;-77
2024/01/27 04:53:11;;;;;;;21.27;6.63;;;;;;;;;;5113141;28;20240;-77
2024/01/27 04:55:38;;;;;;;10.97;4.87;;;;;;;;;;5112343;28;20225;-77
2024/01/27 04:58:05;;;;;;;11.73;3.97;;;;;;;;;;5113126;28;20257;-77
2024/01/27 05:00:34;;;;;;;17.63;3.53;;;;;;;;;;5112698;28;20286;-77
2024/01/27 05:03:04;;;;;;;13.33;3.47;;;;;;;;;;5112834;28;20277;-76
2024/01/27 05:05:31;;;;;;;12.67;4.30;;;;;;;;;;5112572;28;20203;-77
2024/01/27 05:07:58;;;;;;;8.57;2.90;;;;;;;;;;5112769;28;20228;-76
2024/01/27 05:10:26;;;;;;;15.40;3.60;;;;;;;;;;5112545;28;20190;-77
2024/01/27 05:12:55;;;;;;;10.43;4.27;;;;;;;;;;5112475;28;20221;-75
2024/01/27 05:15:22;;;;;;;14.47;4.03;;;;;;;;;;5112900;28;20194;-76
2024/01/27 05:17:50;;;;;;;11.17;3.93;;;;;;;;;;5112154;28;20312;-77
2024/01/27 05:20:18;;;;;;;11.53;3.80;;;;;;;;;;5112601;28;20228;-77
2024/01/27 05:22:46;;;;;;;17.57;4.23;;;;;;;;;;5112074;28;20198;-76
2024/01/27 05:25:13;;;;;;;14.17;3.67;;;;;;;;;;5112199;28;20725;-76
2024/01/27 05:27:40;;;;;;;15.87;4.33;;;;;;;;;;5112306;28;20198;-76
2024/01/27 05:30:08;;;;;;;12.03;3.50;;;;;;;;;;5112766;28;20229;-76
2024/01/27 05:32:35;;;;;;;12.50;3.57;;;;;;;;;;5111985;28;20285;-77
2024/01/27 05:35:05;;;;;;;8.90;3.23;;;;;;;;;;5112167;28;20288;-77
2024/01/27 05:37:32;;;;;;;13.10;3.93;;;;;;;;;;5112082;28;20743;-76
2024/01/27 05:39:59;;;;;;;12.47;3.50;;;;;;;;;;5112327;28;20229;-76
2024/01/27 05:42:26;;;;;;;11.70;3.90;;;;;;;;;;5112013;28;20629;-77
2024/01/27 05:44:53;;;;;;;9.63;4.13;;;;;;;;;;5112439;28;20293;-77
2024/01/27 05:47:20;;;;;;;11.03;3.90;;;;;;;;;;5111193;28;20706;-77
2024/01/27 05:49:47;;;;;;;9.93;3.00;;;;;;;;;;5112561;28;20622;-77
2024/01/27 05:52:16;;;;;;;15.67;3.37;;;;;;;;;;5111466;28;20210;-77
2024/01/27 05:54:43;;;;;;;12.10;2.90;;;;;;;;;;5112332;28;20284;-76
2024/01/27 05:57:10;;;;;;;14.13;3.30;;;;;;;;;;5111761;28;20592;-77
2024/01/27 05:59:37;;;;;;;9.07;2.93;;;;;;;;;;5111870;28;20682;-77
2024/01/27 06:02:05;;;;;;;11.37;2.73;;;;;;;;;;5111652;28;20741;-77
2024/01/27 06:04:33;;;;;;;9.10;2.67;;;;;;;;;;5111856;28;20221;-77
2024/01/27 06:07:00;;;;;;;8.33;2.60;;;;;;;;;;5111404;28;20714;-77
2024/01/27 06:09:28;;;;;;;10.97;2.90;;;;;;;;;;5112417;28;20273;-78
2024/01/27 06:11:56;;;;;;;7.40;2.27;;;;;;;;;;5111712;28;20291;-76
2024/01/27 06:14:23;;;;;;;13.63;2.80;;;;;;;;;;5111205;28;20232;-77
2024/01/27 06:16:51;;;;;;;9.27;2.33;;;;;;;;;;5111542;28;20285;-77
2024/01/27 06:19:18;;;;;;;8.63;2.50;;;;;;;;;;5111536;28;20203;-77
2024/01/27 06:21:45;;;;;;;9.77;4.10;;;;;;;;;;5111209;28;20280;-77
2024/01/27 06:24:12;;;;;;;10.67;3.07;;;;;;;;;;5111849;28;20236;-76
2024/01/27 06:26:41;;;;;;;11.07;3.93;;;;;;;;;;5111489;28;20288;-78
2024/01/27 06:29:08;;;;;;;9.20;4.00;;;;;;;;;;5111469;28;20635;-77
2024/01/27 06:31:35;;;;;;;8.77;4.13;;;;;;;;;;5111329;28;20280;-76
2024/01/27 06:34:02;;;;;;;7.97;2.93;;;;;;;;;;5111318;28;20696;-76
2024/01/27 06:36:30;;;;;;;9.90;3.60;;;;;;;;;;5111842;28;20204;-77
2024/01/27 06:38:57;;;;;;;12.00;3.93;;;;;;;;;;5111307;28;20233;-77
2024/01/27 06:41:24;;;;;;;9.43;3.07;;;;;;;;;;5111479;28;20217;-77
2024/01/27 06:43:53;;;;;;;7.83;2.90;;;;;;;;;;5111233;28;20230;-77
2024/01/27 06:46:20;;;;;;;10.33;3.20;;;;;;;;;;5111440;28;20285;-76
2024/01/27 06:48:47;;;;;;;10.03;3.00;;;;;;;;;;5111527;28;20200;-77
2024/01/27 06:51:14;;;;;;;9.57;3.87;;;;;;;;;;5111528;28;20296;-76
2024/01/27 06:53:41;;;;;;;13.20;4.17;;;;;;;;;;5111057;28;20236;-77
2024/01/27 06:56:09;;;;;;;18.37;3.37;;;;;;;;;;5111856;28;20225;-77
2024/01/27 06:58:36;;;;;;;9.20;2.63;;;;;;;;;;5111181;28;20233;-77
2024/01/27 07:01:05;;;;;;;8.57;2.63;;;;;;;;;;5111487;28;20190;-76
2024/01/27 07:03:32;;;;;;;11.87;3.03;;;;;;;;;;5111898;28;20203;-77
2024/01/27 07:06:00;;;;;;;9.27;3.00;;;;;;;;;;5110904;28;20224;-76
2024/01/27 07:08:29;;;;;;;8.40;3.00;;;;;;;;;;5111181;28;20222;-76
2024/01/27 07:10:56;;;;;;;6.20;2.70;;;;;;;;;;5111181;28;20190;-77
2024/01/27 07:13:23;;;;;;;10.33;3.03;;;;;;;;;;5110917;28;20673;-77
2024/01/27 07:15:50;;;;;;;6.97;2.80;;;;;;;;;;5111074;28;20218;-76
2024/01/27 07:18:19;;;;;;;11.10;2.90;;;;;;;;;;5111953;28;20309;-77
2024/01/27 07:20:46;;;;;;;11.97;2.83;;;;;;;;;;5114924;28;20195;-77
2024/01/27 07:23:13;;;;;;;7.70;2.80;;;;;;;;;;5115106;28;20281;-76
2024/01/27 07:25:41;;;;;;;8.90;2.33;;;;;;;;;;5114603;27;20233;-76
2024/01/27 07:28:08;;;;;;;7.83;2.40;;;;;;;;;;5114346;27;20285;-76
2024/01/27 07:30:35;;;;;;;9.93;2.67;;;;;;;;;;5114683;28;20230;-76
2024/01/27 07:33:02;;;;;;;10.77;3.13;;;;;;;;;;5114895;27;20288;-76
2024/01/27 07:35:31;;;;;;;10.57;3.17;;;;;;;;;;5115036;28;20221;-77
2024/01/27 07:37:58;;;;;;;12.73;3.40;;;;;;;;;;5114036;28;20219;-77
2024/01/27 07:40:26;;;;;;;9.23;3.03;;;;;;;;;;5114319;28;20190;-76
2024/01/27 07:42:53;;;;;;;7.90;2.80;;;;;;;;;;5114201;27;20291;-77
2024/01/27 07:45:20;;;;;;;12.77;2.67;;;;;;;;;;5114605;28;20297;-77
2024/01/27 07:47:47;;;;;;;10.30;2.80;;;;;;;;;;5114393;28;20201;-77
2024/01/27 07:50:14;;;;;;;10.73;2.93;;;;;;;;;;5114299;28;20202;-77
2024/01/27 07:52:43;;;;;;;8.97;3.03;;;;;;;;;;5114492;28;20237;-77
2024/01/27 07:55:11;;;;;;;8.80;2.87;;;;;;;;;;5114326;28;20646;-77
2024/01/27 07:57:38;;;;;;;11.57;2.97;;;;;;;;;;5113693;28;20764;-78
2024/01/27 08:00:06;;;;;;;12.07;3.10;;;;;;;;;;5114111;28;20297;-77
2024/01/27 08:02:33;;;;;;;11.10;2.97;;;;;;;;;;5114331;28;20573;-77
2024/01/27 08:05:01;;;;;;;10.27;2.80;;;;;;;;;;5113756;28;20639;-78
2024/01/27 08:07:28;;;;;;;13.73;2.97;;;;;;;;;;5114095;28;20621;-77
2024/01/27 08:09:57;;;;;;;11.40;3.10;;;;;;;;;;5113713;28;20202;-77
2024/01/27 08:12:24;;;;;;;9.17;3.30;;;;;;;;;;5112997;28;20723;-77
2024/01/27 08:14:51;;;;;;;10.77;2.90;;;;;;;;;;5113965;28;20280;-77
2024/01/27 08:17:18;;;;;;;9.70;2.70;;;;;;;;;;5113765;27;20288;-76
2024/01/27 08:19:45;;;;;;;9.30;2.93;;;;;;;;;;5113402;28;20291;-76
2024/01/27 08:22:13;;;;;;;8.27;2.40;;;;;;;;;;5113691;28;20194;-77
2024/01/27 08:24:40;;;;;;;9.00;2.20;;;;;;;;;;5113812;28;20634;-77
2024/01/27 08:27:08;;;;;;;13.10;3.20;;;;;;;;;;5113255;28;20777;-77
2024/01/27 08:29:36;;;;;;;12.97;2.90;;;;;;;;;;5112323;28;20289;-77
2024/01/27 08:32:05;;;;;;;13.13;3.07;;;;;;;;;;5111790;27;20284;-77
2024/01/27 08:34:32;;;;;;;7.83;2.70;;;;;;;;;;5114949;27;20629;-77
2024/01/27 08:37:03;;;;;;;10.37;2.40;;;;;;;;;;5101732;28;20208;-76
2024/01/27 08:39:30;;;;;;;10.53;2.87;;;;;;;;;;5113237;28;20316;-77
2024/01/27 08:41:57;;;;;;;8.93;2.53;;;;;;;;;;5109571;28;20208;-76
2024/01/27 08:44:26;;;;;;;8.70;2.17;;;;;;;;;;5108978;28;20255;-77
2024/01/27 08:46:53;;;;;;;9.53;2.47;;;;;;;;;;5109956;28;20306;-77
2024/01/27 08:49:20;;;;;;;9.37;2.57;;;;;;;;;;5109913;28;20281;-76
2024/01/27 08:51:47;;;;;;;5.93;2.10;;;;;;;;;;5109869;28;20294;-77
2024/01/27 08:54:15;;;;;;;4.40;1.90;;;;;;;;;;5108600;28;20298;-76
2024/01/27 08:56:42;;;;;;;8.10;2.10;;;;;;;;;;5108539;28;20281;-76
2024/01/27 08:59:09;;;;;;;10.03;2.40;;;;;;;;;;5098294;28;20327;-76
2024/01/27 09:01:38;;;;;;;6.73;2.10;;;;;;;;;;5101435;28;20784;-77
2024/01/27 09:04:05;;;;;;;9.60;2.43;;;;;;;;;;5101533;28;20284;-76
2024/01/27 09:06:32;;;;;;;6.97;2.10;;;;;;;;;;5112870;28;20208;-76
2024/01/27 09:08:59;;;;;;;11.17;2.07;;;;;;;;;;5112006;28;20284;-77
2024/01/27 09:11:29;;;;;;;9.40;2.60;;;;;;;;;;5109068;28;20201;-78
2024/01/27 09:13:57;;;;;;;6.87;2.27;;;;;;;;;;5107803;27;20229;-78
2024/01/27 09:16:24;;;;;;;7.97;2.50;;;;;;;;;;5122658;27;20249;-78
2024/01/27 09:18:52;;;;;;;7.87;2.40;;;;;;;;;;5132767;27;20252;-78
2024/01/27 09:21:22;;;;;;;8.97;2.60;;;;;;;;;;5133114;27;20227;-77
2024/01/27 09:23:49;;;;;;;6.87;2.70;;;;;;;;;;5132072;27;20197;-77
2024/01/27 09:26:18;;;;;;;10.40;3.00;;;;;;;;;;5133015;27;20254;-77
2024/01/27 09:28:53;;;;;;;9.97;3.67;;;;;;;;;;5133108;27;20601;-76
2024/01/27 09:31:21;;;;;;;11.83;4.33;;;;;;;;;;5117863;27;20197;-78
2024/01/27 09:33:48;;;;;;;5.47;1.80;;;;;;;;;;5120578;27;20227;-77
2024/01/27 09:36:17;;;;;;;7.73;2.30;;;;;;;;;;5126367;27;20194;-77
2024/01/27 09:38:44;;;;;;;9.67;2.80;;;;;;;;;;5098778;28;20693;-78
2024/01/27 09:41:14;;;;;;;6.60;2.47;;;;;;;;;;5111538;28;20194;-77
2024/01/27 09:43:44;;;;;;;6.50;2.37;;;;;;;;;;5112033;28;20190;-77
2024/01/27 09:46:18;;;;;;;8.13;2.00;;;;;;;;;;5111900;28;20281;-77
2024/01/27 09:48:45;;;;;;;5.97;2.20;;;;;;;;;;5111648;28;20233;-77
2024/01/27 09:51:12;;;;;;;5.90;2.20;;;;;;;;;;5123167;27;20225;-77
2024/01/27 09:53:41;;;;;;;4.60;2.00;;;;;;;;;;5105128;28;20664;-77
2024/01/27 09:56:09;;;;;;;5.67;2.03;;;;;;;;;;5111105;28;20288;-77
2024/01/27 09:58:36;;;;;;;6.97;2.20;;;;;;;;;;5105083;28;20304;-76
2024/01/27 10:01:03;;;;;;;7.27;2.00;;;;;;;;;;5096941;28;20205;-77
2024/01/27 10:03:30;;;;;;;7.13;2.37;;;;;;;;;;5098586;28;21874;-77
2024/01/27 10:05:58;;;;;;;8.13;2.20;;;;;;;;;;5110016;28;20224;-77
2024/01/27 10:08:26;;;;;;;7.17;2.50;;;;;;;;;;5105432;28;20222;-77
2024/01/27 10:10:56;;;;;;;6.43;2.10;;;;;;;;;;5102752;28;20292;-76
2024/01/27 10:13:29;;;;;;;5.80;2.20;;;;;;;;;;5107867;28;20265;-77
2024/01/27 10:16:02;;;;;;;8.60;2.20;;;;;;;;;;5109657;28;20696;-77
2024/01/27 10:18:30;;;;;;;11.20;2.23;;;;;;;;;;5107027;28;20217;-78
2024/01/27 10:20:57;;;;;;;6.00;2.40;;;;;;;;;;5101342;28;20221;-77
2024/01/27 10:23:24;;;;;;;9.33;2.90;;;;;;;;;;5110131;28;20229;-77
2024/01/27 10:25:52;;;;;;;9.13;3.70;;;;;;;;;;5111092;28;20228;-77
2024/01/27 10:28:22;;;;;;;8.63;2.87;;;;;;;;;;5111493;28;20193;-74
2024/01/27 10:30:50;;;;;;;9.67;2.47;;;;;;;;;;5111099;28;20197;-75
2024/01/27 10:33:17;;;;;;;9.50;2.50;;;;;;;;;;5109452;28;20202;-76
2024/01/27 10:35:44;;;;;;;6.23;2.47;;;;;;;;;;5107164;28;20210;-78
2024/01/27 10:38:12;;;;;;;6.27;1.90;;;;;;;;;;5107890;28;20656;-77
2024/01/27 10:40:39;;;;;;;4.53;1.90;;;;;;;;;;5110271;28;20193;-77
2024/01/27 10:43:07;;;;;;;6.93;2.20;;;;;;;;;;5111111;28;20201;-77
2024/01/27 10:45:38;;;;;;;8.03;2.10;;;;;;;;;;5096238;28;20191;-77
2024/01/27 10:48:06;;;;;;;7.83;1.83;;;;;;;;;;5108300;28;20731;-77
2024/01/27 10:50:38;;;;;;;6.70;1.90;;;;;;;;;;5090211;28;20212;-76
2024/01/27 10:53:05;;;;;;;7.77;2.07;;;;;;;;;;5101062;28;20321;-75
2024/01/27 10:55:35;;;;;;;6.60;1.90;;;;;;;;;;5109269;28;20220;-75
2024/01/27 10:58:03;;;;;;;7.20;1.87;;;;;;;;;;5107909;28;20220;-75
2024/01/27 11:00:30;;;;;;;6.07;1.90;;;;;;;;;;5105123;28;20288;-75
2024/01/27 11:03:00;;;;;;;4.90;1.80;;;;;;;;;;5102010;28;20758;-75
2024/01/27 11:05:29;;;;;;;3.90;1.80;;;;;;;;;;5106130;28;20210;-75
2024/01/27 11:07:57;;;;;;;5.57;2.00;;;;;;;;;;5104319;28;20194;-74
2024/01/27 11:10:24;;;;;;;9.10;2.40;;;;;;;;;;5109613;28;20206;-74
2024/01/27 11:12:54;;;;;;;7.47;2.33;;;;;;;;;;5109189;28;20225;-75
2024/01/27 11:15:22;;;;;;;21.57;11.03;;;;;;;;;;5107424;27;20560;-74
2024/01/27 11:17:49;;;;;;;5.77;2.47;;;;;;;;;;5105375;28;20213;-76
2024/01/27 11:20:17;;;;;;;7.10;2.40;;;;;;;;;;5106428;28;20221;-77
2024/01/27 11:22:46;;;;;;;4.53;2.00;;;;;;;;;;5106397;28;20201;-75
2024/01/27 11:25:17;;;;;;;6.97;3.20;;;;;;;;;;5106400;27;20237;-77
2024/01/27 11:27:44;;;;;;;6.63;3.13;;;;;;;;;;5107769;28;20292;-77
2024/01/27 11:30:26;;;;;;;5.30;1.80;;;;;;;;;;5110236;28;20272;-76
2024/01/27 11:32:54;;;;;;;7.30;2.00;;;;;;;;;;5107863;27;20209;-78
2024/01/27 11:35:22;;;;;;;6.17;2.53;;;;;;;;;;5108401;28;20671;-78
2024/01/27 11:37:50;;;;;;;5.53;1.70;;;;;;;;;;5108405;28;20576;-76
2024/01/27 11:40:17;;;;;;;4.97;1.70;;;;;;;;;;5109195;28;20222;-78
2024/01/27 11:42:44;;;;;;;5.47;1.80;;;;;;;;;;5108269;28;20205;-78
2024/01/27 11:45:12;;;;;;;5.60;1.63;;;;;;;;;;5109596;28;20202;-76
2024/01/27 11:47:39;;;;;;;5.03;1.60;;;;;;;;;;5108531;28;20263;-76
2024/01/27 11:50:07;;;;;;;4.07;1.50;;;;;;;;;;5108056;28;20762;-76
2024/01/27 11:52:36;;;;;;;5.83;1.70;;;;;;;;;;5108702;28;20255;-77
2024/01/27 11:55:03;;;;;;;6.17;2.10;;;;;;;;;;5108980;28;21017;-76
2024/01/27 11:57:30;;;;;;;4.67;1.50;;;;;;;;;;5111110;28;20729;-76
2024/01/27 11:59:58;;;;;;;4.97;1.60;;;;;;;;;;5113768;28;20275;-77
2024/01/27 12:02:25;;;;;;;3.80;1.90;;;;;;;;;;5112941;28;20289;-78
2024/01/27 12:04:53;;;;;;;6.43;2.27;;;;;;;;;;5113461;28;20198;-76
2024/01/27 12:07:21;;;;;;;5.03;1.80;;;;;;;;;;5113364;28;20676;-77
2024/01/27 12:09:50;;;;;;;7.53;1.97;;;;;;;;;;5113804;28;20198;-76
2024/01/27 12:12:17;;;;;;;4.70;2.30;;;;;;;;;;5113852;28;20222;-77
2024/01/27 12:14:48;;;;;;;5.17;2.10;;;;;;;;;;5099951;28;20618;-76
2024/01/27 12:17:16;;;;;;;4.87;1.70;;;;;;;;;;5097428;28;20219;-77
2024/01/27 12:19:47;;;;;;;5.90;2.17;;;;;;;;;;5100437;28;20240;-76
2024/01/27 12:22:22;;;;;;;6.10;2.80;;;;;;;;;;5110031;28;20202;-76
2024/01/27 12:24:51;;;;;;;4.87;1.87;;;;;;;;;;5113726;28;20189;-77
2024/01/27 12:27:18;;;;;;;5.90;2.20;;;;;;;;;;5113389;28;20202;-76
2024/01/27 12:29:47;;;;;;;9.30;4.60;;;;;;;;;;5113395;28;20229;-76
2024/01/27 12:32:14;;;;;;;10.20;5.47;;;;;;;;;;5112738;28;20198;-76
2024/01/27 12:34:42;;;;;;;6.73;2.37;;;;;;;;;;5113650;28;20467;-76
2024/01/27 12:37:09;;;;;;;4.70;2.00;;;;;;;;;;5110291;28;20292;-77
2024/01/27 12:39:38;;;;;;;4.90;1.80;;;;;;;;;;5112910;28;20316;-77
2024/01/27 12:42:07;;;;;;;6.07;2.00;;;;;;;;;;5112961;28;20262;-76
2024/01/27 12:44:34;;;;;;;5.00;2.00;;;;;;;;;;5099280;28;20653;-77
2024/01/27 12:47:01;;;;;;;6.43;1.80;;;;;;;;;;5096938;28;20718;-77
2024/01/27 12:49:28;;;;;;;6.47;1.60;;;;;;;;;;5112911;28;20204;-77
2024/01/27 12:51:58;;;;;;;3.57;1.50;;;;;;;;;;5112812;28;20282;-76
2024/01/27 12:54:25;;;;;;;5.07;1.87;;;;;;;;;;5104150;28;20285;-77
2024/01/27 12:56:52;;;;;;;5.17;1.83;;;;;;;;;;5112578;28;20258;-78
2024/01/27 12:59:21;;;;;;;5.37;1.97;;;;;;;;;;5111094;28;20213;-77
2024/01/27 13:01:48;;;;;;;5.50;2.20;;;;;;;;;;5112353;28;20253;-82
2024/01/27 13:04:15;;;;;;;5.10;2.00;;;;;;;;;;5113712;27;20232;-81
2024/01/27 13:06:43;;;;;;;5.53;1.53;;;;;;;;;;5111792;28;20227;-83
2024/01/27 13:09:12;;;;;;;5.03;1.90;;;;;;;;;;5106686;28;20763;-82
2024/01/27 13:11:39;;;;;;;6.33;1.90;;;;;;;;;;5112910;27;20202;-82
2024/01/27 13:14:06;;;;;;;3.77;1.70;;;;;;;;;;5112586;28;20229;-81
2024/01/27 13:16:35;;;;;;;3.83;1.40;;;;;;;;;;5111415;28;20619;-82
2024/01/27 13:19:02;;;;;;;5.13;1.60;;;;;;;;;;5112652;28;20288;-82
2024/01/27 13:21:29;;;;;;;5.60;2.00;;;;;;;;;;5112650;28;20288;-81
2024/01/27 13:23:56;;;;;;;4.63;1.77;;;;;;;;;;5112778;28;20288;-81
2024/01/27 13:26:23;;;;;;;7.27;1.87;;;;;;;;;;5112639;28;20198;-82
2024/01/27 13:28:50;;;;;;;6.03;2.30;;;;;;;;;;5112770;28;20221;-81
2024/01/27 13:31:18;;;;;;;4.43;2.20;;;;;;;;;;5112041;28;20574;-81
2024/01/27 13:33:47;;;;;;;4.20;1.60;;;;;;;;;;5112805;28;20223;-82
2024/01/27 13:36:14;;;;;;;7.10;2.17;;;;;;;;;;5112495;28;20285;-83
2024/01/27 13:38:41;;;;;;;6.80;2.00;;;;;;;;;;5112479;28;20194;-82
2024/01/27 13:41:08;;;;;;;6.13;2.13;;;;;;;;;;5112200;28;20781;-81
2024/01/27 13:43:35;;;;;;;4.47;2.20;;;;;;;;;;5112475;28;20197;-81
2024/01/27 13:46:03;;;;;;;5.67;2.87;;;;;;;;;;5112220;28;20189;-82
2024/01/27 13:48:30;;;;;;;3.83;1.53;;;;;;;;;;5112571;28;20280;-82
2024/01/27 13:50:59;;;;;;;4.00;2.20;;;;;;;;;;5112398;28;20200;-82
2024/01/27 13:53:26;;;;;;;4.73;2.10;;;;;;;;;;5110886;28;20202;-81
2024/01/27 13:55:54;;;;;;;4.43;1.80;;;;;;;;;;5112873;28;20642;-80
2024/01/27 13:58:23;;;;;;;3.80;1.60;;;;;;;;;;5113232;28;20289;-81
2024/01/27 14:00:50;;;;;;;5.97;1.77;;;;;;;;;;5113752;28;20253;-82
2024/01/27 14:03:17;;;;;;;6.30;2.57;;;;;;;;;;5111998;28;20707;-82
2024/01/27 14:05:46;;;;;;;4.03;2.00;;;;;;;;;;5111913;28;20662;-81
2024/01/27 14:08:15;;;;;;;4.70;1.70;;;;;;;;;;5112222;28;20250;-82
2024/01/27 14:10:43;;;;;;;6.00;1.80;;;;;;;;;;5111866;28;20574;-82
2024/01/27 14:13:10;;;;;;;4.90;2.00;;;;;;;;;;5111916;28;20233;-82
2024/01/27 14:15:37;;;;;;;6.20;1.60;;;;;;;;;;5112250;28;20289;-82
2024/01/27 14:18:06;;;;;;;4.23;1.30;;;;;;;;;;5111874;28;20197;-82
2024/01/27 14:20:34;;;;;;;5.00;1.60;;;;;;;;;;5111668;28;20232;-82
2024/01/27 14:23:01;;;;;;;5.83;1.60;;;;;;;;;;5111689;28;20658;-82
2024/01/27 14:25:30;;;;;;;5.17;1.60;;;;;;;;;;5111868;28;20289;-81
2024/01/27 14:27:57;;;;;;;6.43;1.60;;;;;;;;;;5114192;28;20261;-81
2024/01/27 14:30:25;;;;;;;4.97;1.50;;;;;;;;;;5115866;28;20765;-82
2024/01/27 14:32:52;;;;;;;5.23;1.77;;;;;;;;;;5116015;28;20289;-82
2024/01/27 14:35:19;;;;;;;4.90;1.97;;;;;;;;;;5115866;28;20199;-82
2024/01/27 14:37:46;;;;;;;4.47;2.00;;;;;;;;;;5115795;28;20292;-82